createdAt,value
2023-04-03T00:03:58.188Z,9.50
2023-04-03T00:10:00.876Z,9.40
2023-04-03T00:16:04.824Z,9.40
2023-04-03T00:22:07.129Z,9.20
2023-04-03T00:28:10.096Z,9.10
2023-04-03T00:34:12.552Z,9.00
2023-04-03T00:40:16.818Z,8.90
2023-04-03T00:46:19.400Z,8.70
2023-04-03T00:52:26.862Z,8.70
2023-04-03T00:58:41.289Z,8.60
2023-04-03T01:04:45.211Z,8.60
2023-04-03T01:10:47.603Z,8.50
2023-04-03T01:16:56.705Z,8.50
2023-04-03T01:23:11.263Z,8.40
2023-04-03T01:29:13.754Z,8.60
2023-04-03T01:35:16.443Z,8.70
2023-04-03T01:41:19.513Z,8.70
2023-04-03T01:47:23.914Z,8.70
2023-04-03T01:53:26.740Z,8.70
2023-04-03T01:59:29.695Z,8.70
2023-04-03T02:05:32.475Z,8.80
2023-04-03T02:11:34.964Z,8.90
2023-04-03T02:17:38.121Z,9.00
2023-04-03T02:23:40.531Z,9.10
2023-04-03T02:29:42.843Z,9.10
2023-04-03T02:35:45.373Z,9.10
2023-04-03T02:41:47.833Z,8.90
2023-04-03T02:47:56.588Z,8.70
2023-04-03T02:53:59.455Z,8.60
2023-04-03T03:00:06.770Z,8.60
2023-04-03T03:06:15.458Z,8.60
2023-04-03T03:12:23.119Z,8.50
2023-04-03T03:18:26.267Z,8.50
2023-04-03T03:24:28.859Z,8.40
2023-04-03T03:30:31.508Z,8.30
2023-04-03T03:36:33.621Z,8.30
2023-04-03T03:42:36.482Z,8.40
2023-04-03T03:48:38.771Z,8.40
2023-04-03T03:54:41.207Z,8.40
2023-04-03T04:00:43.486Z,8.40
2023-04-03T04:06:46.742Z,8.40
2023-04-03T04:12:50.426Z,8.40
2023-04-03T04:18:53.926Z,8.40
2023-04-03T04:24:56.921Z,8.50
2023-04-03T04:30:59.431Z,8.60
2023-04-03T04:37:03.283Z,8.60
2023-04-03T04:43:06.843Z,8.80
2023-04-03T04:49:09.567Z,8.80
2023-04-03T04:55:12.301Z,8.80
2023-04-03T05:01:14.699Z,9.40
2023-04-03T05:07:26.485Z,13.90
2023-04-03T05:13:29.684Z,16.70
2023-04-03T05:19:33.039Z,19.00
2023-04-03T05:25:38.753Z,20.00
2023-04-03T05:31:41.704Z,19.50
2023-04-03T05:37:46.419Z,19.90
2023-04-03T05:43:50.840Z,19.70
2023-04-03T05:49:53.938Z,20.00
2023-04-03T05:55:56.571Z,20.80
2023-04-03T06:01:59.660Z,21.20
2023-04-03T06:08:02.006Z,21.00
2023-04-03T06:14:04.592Z,21.90
2023-04-03T06:20:06.827Z,18.80
2023-04-03T06:26:10.001Z,16.30
2023-04-03T06:32:12.309Z,15.40
2023-04-03T06:38:14.607Z,14.40
2023-04-03T06:44:17.472Z,14.30
2023-04-03T06:50:19.981Z,13.40
2023-04-03T06:56:22.995Z,13.10
2023-04-03T07:02:25.572Z,13.70
2023-04-03T07:08:28.159Z,13.90
2023-04-03T07:14:30.501Z,14.50
2023-04-03T07:20:32.974Z,16.60
2023-04-03T07:26:35.314Z,16.20
2023-04-03T07:32:38.134Z,15.50
2023-04-03T07:38:40.765Z,15.70
2023-04-03T07:44:42.929Z,15.90
2023-04-03T07:50:48.748Z,17.30
2023-04-03T07:56:51.529Z,21.80
2023-04-03T08:02:53.970Z,20.90
2023-04-03T08:08:56.353Z,21.80
2023-04-03T08:14:58.893Z,23.40
2023-04-03T08:21:01.623Z,22.90
2023-04-03T08:27:04.101Z,23.40
2023-04-03T08:33:06.493Z,23.60
2023-04-03T08:39:09.287Z,24.60
2023-04-03T08:45:44.154Z,24.80
2023-04-03T08:51:50.163Z,22.10
2023-04-03T08:58:00.071Z,22.10
2023-04-03T09:04:04.255Z,21.10
2023-04-03T09:10:07.641Z,20.70
2023-04-03T09:16:36.103Z,18.20
2023-04-03T09:22:49.648Z,21.30
2023-04-03T09:28:57.469Z,20.40
2023-04-03T09:35:48.130Z,21.60
2023-04-03T09:42:08.688Z,20.40
2023-04-03T09:48:19.444Z,22.30
2023-04-03T09:54:38.827Z,23.40
2023-04-03T10:00:41.888Z,21.80
2023-04-03T10:06:50.555Z,21.10
2023-04-03T10:13:20.238Z,20.10
2023-04-03T10:19:44.972Z,19.90
2023-04-03T10:26:15.927Z,20.50
2023-04-03T10:32:20.848Z,20.20
2023-04-03T10:38:36.029Z,19.50
2023-04-03T10:44:44.663Z,18.20
2023-04-03T10:51:28.811Z,17.50
2023-04-03T10:57:32.000Z,18.70
2023-04-03T11:03:45.539Z,19.60
2023-04-03T11:09:58.753Z,18.60
2023-04-03T11:16:01.898Z,18.80
2023-04-03T11:22:24.718Z,18.90
2023-04-03T11:28:27.846Z,18.70
2023-04-03T11:34:35.688Z,19.90
2023-04-03T11:40:39.298Z,21.10
2023-04-03T11:46:57.885Z,19.60
2023-04-03T11:53:07.867Z,17.70
2023-04-03T11:59:15.643Z,17.50
2023-04-03T12:05:31.059Z,16.90
2023-04-03T12:11:35.377Z,17.30
2023-04-03T12:17:38.226Z,17.30
2023-04-03T12:24:18.882Z,17.10
2023-04-03T12:30:27.992Z,16.60
2023-04-03T12:36:46.529Z,16.30
2023-04-03T12:43:11.833Z,16.20
2023-04-03T12:49:34.828Z,16.00
2023-04-03T12:55:37.440Z,15.80
2023-04-03T13:01:40.636Z,15.80
2023-04-03T13:07:45.239Z,16.00
2023-04-03T13:13:58.664Z,15.80
2023-04-03T13:20:14.868Z,16.20
2023-04-03T13:26:20.040Z,16.10
2023-04-03T13:32:26.222Z,16.20
2023-04-03T13:38:34.251Z,16.00
2023-04-03T13:44:40.853Z,16.10
2023-04-03T13:51:04.505Z,15.80
2023-04-03T13:57:16.305Z,15.60
2023-04-03T14:03:44.329Z,15.60
2023-04-03T14:09:46.691Z,15.50
2023-04-03T14:15:50.125Z,15.30
2023-04-03T14:21:54.554Z,15.10
2023-04-03T14:27:57.553Z,15.00
2023-04-03T14:33:59.937Z,14.80
2023-04-03T14:40:05.150Z,14.80
2023-04-03T14:46:16.180Z,14.90
2023-04-03T14:52:32.401Z,14.90
2023-04-03T14:58:38.216Z,14.80
2023-04-03T15:04:41.138Z,14.80
2023-04-03T15:10:43.308Z,14.70
2023-04-03T15:16:46.368Z,14.50
2023-04-03T15:22:48.792Z,14.40
2023-04-03T15:28:51.112Z,14.40
2023-04-03T15:34:56.042Z,14.40
2023-04-03T15:40:59.367Z,14.30
2023-04-03T15:47:02.774Z,14.20
2023-04-03T15:53:05.483Z,14.10
2023-04-03T15:59:07.734Z,14.00
2023-04-03T16:05:11.628Z,13.90
2023-04-03T16:11:14.176Z,13.70
2023-04-03T16:17:16.887Z,13.60
2023-04-03T16:23:19.530Z,13.60
2023-04-03T16:29:22.216Z,13.50
2023-04-03T16:35:24.478Z,13.40
2023-04-03T16:41:26.872Z,13.30
2023-04-03T16:47:29.118Z,13.30
2023-04-03T16:53:31.433Z,13.20
2023-04-03T16:59:33.732Z,13.20
2023-04-03T17:05:36.920Z,13.10
2023-04-03T17:11:39.901Z,13.10
2023-04-03T17:17:42.699Z,13.20
2023-04-03T17:23:51.073Z,13.20
2023-04-03T17:29:53.349Z,13.20
2023-04-03T17:35:58.566Z,13.20
2023-04-03T17:42:01.869Z,13.20
2023-04-03T17:48:04.845Z,13.10
2023-04-03T17:54:07.640Z,13.10
2023-04-03T18:00:10.320Z,13.00
2023-04-03T18:06:17.727Z,12.90
2023-04-03T18:12:20.564Z,12.40
2023-04-03T18:18:23.143Z,12.10
2023-04-03T18:24:26.717Z,11.90
2023-04-03T18:30:30.073Z,11.70
2023-04-03T18:36:32.450Z,11.60
2023-04-03T18:42:34.858Z,11.50
2023-04-03T18:48:41.503Z,11.50
2023-04-03T18:54:43.794Z,11.50
2023-04-03T19:00:46.657Z,11.40
2023-04-03T19:06:49.467Z,11.20
2023-04-03T19:12:52.272Z,11.00
2023-04-03T19:18:54.501Z,10.80
2023-04-03T19:24:56.934Z,10.60
2023-04-03T19:31:00.671Z,10.20
2023-04-03T19:37:03.216Z,9.70
2023-04-03T19:43:05.654Z,9.40
2023-04-03T19:49:08.105Z,9.20
2023-04-03T19:55:10.829Z,9.00
2023-04-03T20:01:12.972Z,8.80
2023-04-03T20:07:15.837Z,8.60
2023-04-03T20:13:18.487Z,8.40
2023-04-03T20:19:21.823Z,8.20
2023-04-03T20:31:33.120Z,7.70
2023-04-03T20:37:37.150Z,7.60
2023-04-03T20:43:40.275Z,7.20
2023-04-03T20:49:45.864Z,7.10
2023-04-03T20:56:01.513Z,6.90
2023-04-03T21:02:04.049Z,6.80
2023-04-03T21:08:43.767Z,6.80
2023-04-03T21:15:23.568Z,6.80
2023-04-03T21:21:27.232Z,6.90
2023-04-03T21:27:29.663Z,6.90
2023-04-03T21:33:32.040Z,6.90
2023-04-03T21:39:34.386Z,6.70
2023-04-03T21:45:39.516Z,6.60
2023-04-03T21:51:42.855Z,6.50
2023-04-03T21:57:51.799Z,6.40
2023-04-03T22:03:59.318Z,6.30
2023-04-03T22:10:01.855Z,6.20
2023-04-03T22:16:04.526Z,6.10
2023-04-03T22:22:07.868Z,6.00
2023-04-03T22:28:09.994Z,5.90
2023-04-03T22:34:12.131Z,5.70
2023-04-03T22:40:14.554Z,5.70
2023-04-03T22:46:17.088Z,5.70
2023-04-03T22:52:19.546Z,5.60
2023-04-03T22:58:25.984Z,5.60
2023-04-03T23:04:28.155Z,5.70
2023-04-03T23:10:30.680Z,5.70
2023-04-03T23:16:33.282Z,5.80
2023-04-03T23:22:35.586Z,5.80
2023-04-03T23:28:38.548Z,5.80
2023-04-03T23:34:41.096Z,5.70
2023-04-03T23:40:43.627Z,5.60
2023-04-03T23:46:45.867Z,5.50
2023-04-03T23:52:48.067Z,5.50
2023-04-03T23:58:50.978Z,5.60
